createdAt,value
2018-01-26T00:00:59.688Z,29.12
2018-01-26T00:02:02.154Z,30.30
2018-01-26T00:03:04.687Z,29.40
2018-01-26T00:04:07.150Z,29.75
2018-01-26T00:05:09.615Z,28.90
2018-01-26T00:06:12.080Z,32.53
2018-01-26T00:07:14.596Z,27.13
2018-01-26T00:08:17.181Z,28.50
2018-01-26T00:09:19.646Z,30.50
2018-01-26T00:10:22.129Z,21.67
2018-01-26T00:11:24.604Z,25.12
2018-01-26T00:12:27.085Z,32.90
2018-01-26T00:13:29.555Z,32.92
2018-01-26T00:14:32.022Z,25.25
2018-01-26T00:15:34.487Z,28.95
2018-01-26T00:16:37.021Z,35.33
2018-01-26T00:17:39.501Z,23.10
2018-01-26T00:18:41.974Z,24.35
2018-01-26T00:19:44.455Z,22.95
2018-01-26T00:20:46.918Z,31.85
2018-01-26T00:21:49.393Z,30.23
2018-01-26T00:22:51.858Z,27.73
2018-01-26T00:23:54.322Z,26.23
2018-01-26T00:24:56.801Z,21.95
2018-01-26T00:25:59.281Z,24.63
2018-01-26T00:27:01.758Z,28.17
2018-01-26T00:28:04.248Z,24.17
2018-01-26T00:29:06.733Z,24.15
2018-01-26T00:30:09.212Z,25.15
2018-01-26T00:31:11.674Z,31.98
2018-01-26T00:32:14.138Z,23.70
2018-01-26T00:33:16.620Z,22.73
2018-01-26T00:34:19.091Z,21.67
2018-01-26T00:35:21.555Z,27.20
2018-01-26T00:36:24.028Z,24.08
2018-01-26T00:37:26.513Z,17.70
2018-01-26T00:38:28.979Z,19.00
2018-01-26T00:39:31.443Z,20.17
2018-01-26T00:40:33.907Z,22.85
2018-01-26T00:41:36.370Z,21.75
2018-01-26T00:42:38.859Z,22.05
2018-01-26T00:43:41.341Z,18.75
2018-01-26T00:44:43.806Z,23.30
2018-01-26T00:45:46.289Z,23.65
2018-01-26T00:46:48.764Z,22.02
2018-01-26T00:47:51.248Z,22.87
2018-01-26T00:48:53.710Z,19.02
2018-01-26T00:49:56.188Z,22.13
2018-01-26T00:50:58.668Z,26.85
2018-01-26T00:52:01.134Z,23.80
2018-01-26T00:53:03.608Z,28.90
2018-01-26T00:54:06.094Z,25.45
2018-01-26T00:55:08.587Z,24.10
2018-01-26T00:56:11.068Z,29.30
2018-01-26T00:57:13.534Z,21.58
2018-01-26T00:58:16.009Z,23.98
2018-01-26T00:59:18.493Z,24.90
2018-01-26T01:00:20.969Z,23.80
2018-01-26T01:01:23.446Z,20.73
2018-01-26T01:02:25.916Z,22.30
2018-01-26T01:03:28.380Z,22.30
2018-01-26T01:04:30.846Z,24.90
2018-01-26T01:05:33.325Z,17.25
2018-01-26T01:06:35.802Z,28.40
2018-01-26T01:07:38.267Z,29.10
2018-01-26T01:08:40.741Z,21.90
2018-01-26T01:09:43.221Z,25.10
2018-01-26T01:10:45.708Z,29.65
2018-01-26T01:11:48.182Z,26.95
2018-01-26T01:12:50.646Z,27.70
2018-01-26T01:13:53.126Z,22.48
2018-01-26T01:14:55.596Z,28.10
2018-01-26T01:15:58.061Z,22.20
2018-01-26T01:17:00.549Z,22.02
2018-01-26T01:18:03.015Z,30.75
2018-01-26T01:19:05.488Z,32.47
2018-01-26T01:20:07.976Z,23.73
2018-01-26T01:21:10.439Z,28.92
2018-01-26T01:22:12.912Z,26.10
2018-01-26T01:23:15.383Z,23.38
2018-01-26T01:24:17.859Z,22.87
2018-01-26T01:25:20.326Z,25.77
2018-01-26T01:26:22.800Z,24.30
2018-01-26T01:27:25.263Z,26.52
2018-01-26T01:28:27.747Z,24.37
2018-01-26T01:29:30.228Z,20.33
2018-01-26T01:30:32.704Z,27.52
2018-01-26T01:31:35.166Z,27.10
2018-01-26T01:32:37.631Z,29.83
2018-01-26T01:33:40.096Z,27.08
2018-01-26T01:34:42.581Z,26.67
2018-01-26T01:35:45.046Z,27.33
2018-01-26T01:36:47.511Z,22.75
2018-01-26T01:37:50.206Z,26.08
2018-01-26T01:38:52.671Z,29.87
2018-01-26T01:39:55.153Z,22.42
2018-01-26T01:40:57.614Z,26.52
2018-01-26T01:42:00.079Z,23.23
2018-01-26T01:43:02.558Z,24.70
2018-01-26T01:44:05.019Z,27.27
2018-01-26T01:45:07.483Z,30.58
2018-01-26T01:46:09.951Z,25.27
2018-01-26T01:47:12.429Z,24.73
2018-01-26T01:48:15.393Z,26.73
2018-01-26T01:49:17.876Z,23.08
2018-01-26T01:50:20.356Z,29.73
2018-01-26T01:51:22.844Z,30.23
2018-01-26T01:52:25.322Z,30.98
2018-01-26T01:53:27.795Z,25.83
2018-01-26T01:54:30.263Z,29.85
2018-01-26T01:55:32.742Z,30.20
2018-01-26T01:56:35.226Z,29.48
2018-01-26T01:57:37.709Z,31.33
2018-01-26T01:58:40.175Z,33.80
2018-01-26T01:59:42.639Z,30.05
2018-01-26T02:00:45.107Z,33.35
2018-01-26T02:01:47.585Z,25.48
2018-01-26T02:02:50.060Z,30.20
2018-01-26T02:03:52.537Z,26.85
2018-01-26T02:04:55.017Z,28.15
2018-01-26T02:05:57.474Z,29.90
2018-01-26T02:06:59.960Z,28.98
2018-01-26T02:08:02.431Z,26.45
2018-01-26T02:09:04.909Z,26.55
2018-01-26T02:10:07.374Z,28.10
2018-01-26T02:11:09.842Z,27.65
2018-01-26T02:12:12.329Z,27.25
2018-01-26T02:13:14.792Z,26.35
2018-01-26T02:14:17.255Z,25.05
2018-01-26T02:15:19.742Z,26.25
2018-01-26T02:16:22.217Z,24.60
2018-01-26T02:17:24.687Z,26.92
2018-01-26T02:18:27.155Z,29.95
2018-01-26T02:19:29.622Z,29.95
2018-01-26T02:20:32.100Z,26.48
2018-01-26T02:21:34.570Z,24.08
2018-01-26T02:22:37.046Z,25.73
2018-01-26T02:23:39.513Z,25.25
2018-01-26T02:24:41.988Z,24.58
2018-01-26T02:25:44.472Z,26.62
2018-01-26T02:26:46.938Z,26.65
2018-01-26T02:27:49.403Z,26.25
2018-01-26T02:28:51.861Z,22.55
2018-01-26T02:29:54.325Z,24.08
2018-01-26T02:30:56.787Z,28.10
2018-01-26T02:31:59.254Z,24.17
2018-01-26T02:33:01.734Z,24.52
2018-01-26T02:34:04.209Z,27.02
2018-01-26T02:35:06.674Z,23.52
2018-01-26T02:36:09.164Z,26.67
2018-01-26T02:37:11.645Z,26.60
2018-01-26T02:38:14.111Z,27.52
2018-01-26T02:39:16.570Z,22.10
2018-01-26T02:40:19.035Z,27.95
2018-01-26T02:41:21.503Z,28.17
2018-01-26T02:42:23.976Z,32.90
2018-01-26T02:43:26.443Z,28.62
2018-01-26T02:44:28.911Z,30.33
2018-01-26T02:45:31.380Z,29.63
2018-01-26T02:46:33.847Z,28.67
2018-01-26T02:47:36.310Z,26.10
2018-01-26T02:48:38.788Z,31.80
2018-01-26T02:49:41.277Z,25.42
2018-01-26T02:50:43.747Z,34.72
2018-01-26T02:51:46.211Z,27.13
2018-01-26T02:52:48.692Z,30.00
2018-01-26T02:53:51.170Z,27.40
2018-01-26T02:54:53.657Z,32.65
2018-01-26T02:55:56.119Z,29.05
2018-01-26T02:56:58.586Z,24.52
2018-01-26T02:58:01.051Z,24.85
2018-01-26T02:59:03.515Z,28.15
2018-01-26T03:00:06.002Z,23.30
2018-01-26T03:01:08.504Z,22.77
2018-01-26T03:02:11.011Z,28.02
2018-01-26T03:03:13.483Z,26.48
2018-01-26T03:04:15.947Z,28.80
2018-01-26T03:05:18.470Z,22.55
2018-01-26T03:06:21.004Z,24.45
2018-01-26T03:07:23.513Z,26.37
2018-01-26T03:08:25.982Z,22.13
2018-01-26T03:09:28.472Z,22.90
2018-01-26T03:10:30.945Z,22.45
2018-01-26T03:11:33.425Z,25.75
2018-01-26T03:12:35.888Z,19.98
2018-01-26T03:13:38.373Z,20.50
2018-01-26T03:14:40.835Z,22.75
2018-01-26T03:15:43.297Z,25.70
2018-01-26T03:16:45.773Z,20.05
2018-01-26T03:17:48.242Z,22.17
2018-01-26T03:18:50.717Z,20.00
2018-01-26T03:19:53.196Z,22.08
2018-01-26T03:20:55.666Z,25.50
2018-01-26T03:21:58.164Z,20.80
2018-01-26T03:23:00.634Z,19.33
2018-01-26T03:24:03.122Z,26.73
2018-01-26T03:25:05.604Z,22.35
2018-01-26T03:26:08.066Z,21.73
2018-01-26T03:27:10.544Z,26.55
2018-01-26T03:28:13.033Z,19.62
2018-01-26T03:29:15.498Z,19.77
2018-01-26T03:30:17.990Z,22.25
2018-01-26T03:31:20.465Z,23.05
2018-01-26T03:32:22.934Z,18.30
2018-01-26T03:33:25.399Z,22.35
2018-01-26T03:34:27.867Z,24.17
2018-01-26T03:35:30.339Z,20.92
2018-01-26T03:36:32.802Z,19.48
2018-01-26T03:37:35.280Z,26.17
2018-01-26T03:38:37.760Z,23.90
2018-01-26T03:39:40.222Z,27.08
2018-01-26T03:40:42.696Z,26.62
2018-01-26T03:41:45.158Z,30.15
2018-01-26T03:42:47.634Z,26.10
2018-01-26T03:43:50.102Z,26.08
2018-01-26T03:44:52.571Z,26.73
2018-01-26T03:45:55.034Z,26.87
2018-01-26T03:46:57.498Z,28.20
2018-01-26T03:47:59.962Z,28.67
2018-01-26T03:49:02.449Z,22.23
2018-01-26T03:50:04.911Z,21.98
2018-01-26T03:51:07.379Z,27.42
2018-01-26T03:52:10.101Z,28.83
2018-01-26T03:53:13.311Z,20.98
2018-01-26T03:54:15.789Z,26.67
2018-01-26T03:55:18.304Z,30.48
2018-01-26T03:56:20.786Z,32.65
2018-01-26T03:57:23.255Z,32.72
2018-01-26T03:58:25.760Z,29.12
2018-01-26T03:59:28.241Z,25.55
2018-01-26T04:00:30.719Z,34.10
2018-01-26T04:01:33.186Z,26.98
2018-01-26T04:02:35.665Z,25.30
2018-01-26T04:03:38.150Z,25.10
2018-01-26T04:04:40.626Z,26.52
2018-01-26T04:05:43.105Z,26.98
2018-01-26T04:06:45.571Z,26.87
2018-01-26T04:07:48.053Z,24.87
2018-01-26T04:08:50.539Z,32.95
2018-01-26T04:09:53.002Z,25.98
2018-01-26T04:10:55.466Z,28.35
2018-01-26T04:11:57.949Z,25.30
2018-01-26T04:13:00.435Z,26.12
2018-01-26T04:14:02.915Z,25.42
2018-01-26T04:15:05.397Z,31.48
2018-01-26T04:16:07.880Z,25.88
2018-01-26T04:17:10.357Z,30.17
2018-01-26T04:18:12.837Z,41.03
2018-01-26T04:19:15.322Z,39.33
2018-01-26T04:20:17.786Z,39.67
2018-01-26T04:21:20.262Z,37.50
2018-01-26T04:22:22.744Z,35.00
2018-01-26T04:23:25.210Z,28.10
2018-01-26T04:24:27.712Z,28.17
2018-01-26T04:25:30.194Z,30.25
2018-01-26T04:26:32.661Z,34.25
2018-01-26T04:27:35.145Z,28.70
2018-01-26T04:28:37.629Z,27.42
2018-01-26T04:29:40.106Z,28.75
2018-01-26T04:30:42.591Z,28.92
2018-01-26T04:31:45.069Z,32.92
2018-01-26T04:32:47.568Z,29.00
2018-01-26T04:33:50.040Z,27.23
2018-01-26T04:34:52.512Z,29.58
2018-01-26T04:35:54.979Z,30.17
2018-01-26T04:36:57.456Z,33.63
2018-01-26T04:37:59.937Z,31.62
2018-01-26T04:39:02.403Z,34.13
2018-01-26T04:40:04.928Z,29.83
2018-01-26T04:41:07.424Z,29.92
2018-01-26T04:42:09.899Z,33.70
2018-01-26T04:43:12.366Z,31.83
2018-01-26T04:44:14.850Z,33.00
2018-01-26T04:45:17.314Z,34.65
2018-01-26T04:46:19.775Z,33.53
2018-01-26T04:47:22.277Z,30.00
2018-01-26T04:48:24.738Z,32.10
2018-01-26T04:49:27.213Z,31.60
2018-01-26T04:50:29.702Z,39.88
2018-01-26T04:51:32.181Z,38.47
2018-01-26T04:52:34.660Z,41.05
2018-01-26T04:53:37.140Z,50.58
2018-01-26T04:54:39.632Z,34.88
2018-01-26T04:55:42.116Z,36.75
2018-01-26T04:56:44.587Z,34.50
2018-01-26T04:57:47.082Z,29.40
2018-01-26T04:58:49.547Z,38.75
2018-01-26T04:59:52.124Z,33.35
2018-01-26T05:00:54.678Z,33.60
2018-01-26T05:01:57.150Z,34.25
2018-01-26T05:02:59.652Z,32.60
2018-01-26T05:04:02.146Z,32.53
2018-01-26T05:05:04.628Z,31.12
2018-01-26T05:06:07.095Z,30.23
2018-01-26T05:07:09.581Z,33.97
2018-01-26T05:08:12.058Z,34.67
2018-01-26T05:09:14.536Z,32.40
2018-01-26T05:10:17.012Z,32.63
2018-01-26T05:11:19.496Z,38.97
2018-01-26T05:12:21.976Z,35.47
2018-01-26T05:13:24.452Z,41.75
2018-01-26T05:14:26.933Z,32.45
2018-01-26T05:15:29.453Z,44.60
2018-01-26T05:16:31.936Z,30.48
2018-01-26T05:17:34.425Z,38.05
2018-01-26T05:18:36.914Z,33.78
2018-01-26T05:19:39.378Z,32.63
2018-01-26T05:20:41.873Z,36.58
2018-01-26T05:21:44.347Z,36.15
2018-01-26T05:22:46.829Z,30.90
2018-01-26T05:23:49.318Z,30.27
2018-01-26T05:24:51.798Z,30.52
2018-01-26T05:25:54.294Z,27.90
2018-01-26T05:26:56.768Z,35.92
2018-01-26T05:27:59.244Z,32.83
2018-01-26T05:29:01.757Z,27.13
2018-01-26T05:30:04.198Z,33.40
2018-01-26T05:31:06.770Z,30.58
2018-01-26T05:32:09.237Z,32.13
2018-01-26T05:33:11.703Z,32.30
2018-01-26T05:34:14.246Z,30.90
2018-01-26T05:35:16.806Z,23.00
2018-01-26T05:36:19.266Z,27.35
2018-01-26T05:37:21.748Z,26.02
2018-01-26T05:38:24.234Z,26.92
2018-01-26T05:39:26.703Z,28.83
2018-01-26T05:40:29.184Z,27.90
2018-01-26T05:41:31.669Z,26.27
2018-01-26T05:42:34.148Z,29.20
2018-01-26T05:43:36.620Z,26.08
2018-01-26T05:44:39.088Z,28.58
2018-01-26T05:45:41.572Z,33.63
2018-01-26T05:46:44.043Z,27.02
2018-01-26T05:47:46.524Z,28.05
2018-01-26T05:48:48.990Z,27.05
2018-01-26T05:49:51.503Z,25.50
2018-01-26T05:50:53.978Z,30.45
2018-01-26T05:51:56.466Z,25.98
2018-01-26T05:52:58.935Z,24.42
2018-01-26T05:54:01.412Z,30.17
2018-01-26T05:55:03.908Z,23.83
2018-01-26T05:56:06.408Z,26.87
2018-01-26T05:57:08.889Z,18.48
2018-01-26T05:58:11.354Z,22.85
2018-01-26T05:59:13.828Z,22.45
2018-01-26T06:00:16.308Z,23.65
2018-01-26T06:01:18.775Z,31.12
2018-01-26T06:02:21.274Z,25.88
2018-01-26T06:03:23.742Z,27.60
2018-01-26T06:04:26.207Z,25.83
2018-01-26T06:05:28.689Z,33.35
2018-01-26T06:06:31.168Z,20.98
2018-01-26T06:07:33.626Z,25.50
2018-01-26T06:08:36.104Z,28.35
2018-01-26T06:09:38.580Z,26.37
2018-01-26T06:10:41.046Z,27.48
2018-01-26T06:11:43.524Z,23.60
2018-01-26T06:12:46.100Z,24.48
2018-01-26T06:13:48.760Z,26.42
2018-01-26T06:14:51.232Z,25.85
2018-01-26T06:15:53.716Z,23.40
2018-01-26T06:16:56.192Z,23.08
2018-01-26T06:17:58.664Z,21.87
2018-01-26T06:19:01.130Z,22.80
2018-01-26T06:20:03.606Z,25.37
2018-01-26T06:21:06.090Z,20.48
2018-01-26T06:22:08.554Z,20.92
2018-01-26T06:23:11.018Z,24.10
2018-01-26T06:24:13.483Z,22.87
2018-01-26T06:25:15.946Z,17.42
2018-01-26T06:26:18.424Z,22.90
2018-01-26T06:27:20.933Z,22.40
2018-01-26T06:28:23.400Z,19.60
2018-01-26T06:29:25.886Z,22.40
2018-01-26T06:30:28.346Z,22.45
2018-01-26T06:31:30.950Z,27.87
2018-01-26T06:32:33.425Z,23.75
2018-01-26T06:33:35.971Z,25.00
2018-01-26T06:34:38.434Z,27.83
2018-01-26T06:35:40.909Z,25.08
2018-01-26T06:36:43.366Z,23.50
2018-01-26T06:37:45.831Z,22.45
2018-01-26T06:38:48.290Z,19.25
2018-01-26T06:39:50.762Z,22.95
2018-01-26T06:40:53.277Z,28.08
2018-01-26T06:41:55.744Z,26.83
2018-01-26T06:42:58.229Z,30.02
2018-01-26T06:44:00.690Z,21.90
2018-01-26T06:45:03.169Z,31.02
2018-01-26T06:46:05.666Z,22.75
2018-01-26T06:47:23.219Z,27.77
2018-01-26T06:48:25.840Z,21.73
2018-01-26T06:49:28.324Z,19.80
2018-01-26T06:50:30.825Z,18.05
2018-01-26T06:51:33.381Z,22.70
2018-01-26T06:52:35.874Z,19.60
2018-01-26T06:53:38.363Z,25.15
2018-01-26T06:54:41.055Z,21.42
2018-01-26T06:55:43.532Z,23.98
2018-01-26T06:56:45.998Z,18.62
2018-01-26T06:57:48.544Z,18.85
2018-01-26T06:58:51.009Z,22.08
2018-01-26T06:59:53.484Z,24.70
2018-01-26T07:00:55.971Z,19.20
2018-01-26T07:01:58.434Z,19.95
2018-01-26T07:03:00.909Z,22.75
2018-01-26T07:04:03.389Z,29.20
2018-01-26T07:05:05.891Z,27.05
2018-01-26T07:06:08.441Z,28.02
2018-01-26T07:07:10.916Z,21.42
2018-01-26T07:08:13.396Z,29.45
2018-01-26T07:09:15.868Z,38.08
2018-01-26T07:10:18.374Z,29.85
2018-01-26T07:11:20.875Z,24.92
2018-01-26T07:12:23.330Z,25.90
2018-01-26T07:13:25.808Z,26.55
2018-01-26T07:14:28.289Z,22.58
2018-01-26T07:15:30.763Z,33.65
2018-01-26T07:16:33.277Z,24.58
2018-01-26T07:17:35.762Z,33.53
2018-01-26T07:18:38.260Z,23.85
2018-01-26T07:19:40.799Z,27.45
2018-01-26T07:20:43.285Z,24.60
2018-01-26T07:21:45.779Z,28.90
2018-01-26T07:22:48.265Z,23.70
2018-01-26T07:23:50.754Z,19.85
2018-01-26T07:24:53.228Z,21.37
2018-01-26T07:25:55.718Z,25.67
2018-01-26T07:26:58.206Z,25.60
2018-01-26T07:28:00.685Z,22.58
2018-01-26T07:29:03.227Z,21.23
2018-01-26T07:30:05.699Z,21.40
2018-01-26T07:31:08.449Z,29.95
2018-01-26T07:32:10.930Z,21.12
2018-01-26T07:33:13.437Z,20.60
2018-01-26T07:34:16.018Z,25.50
2018-01-26T07:35:18.496Z,24.75
2018-01-26T07:36:20.967Z,21.02
2018-01-26T07:37:23.470Z,25.62
2018-01-26T07:38:25.953Z,23.00
2018-01-26T07:39:28.504Z,19.62
2018-01-26T07:40:30.994Z,19.73
2018-01-26T07:41:33.463Z,21.15
2018-01-26T07:42:35.931Z,21.40
2018-01-26T07:43:38.413Z,23.25
2018-01-26T07:44:40.883Z,22.90
2018-01-26T07:45:43.345Z,20.42
2018-01-26T07:46:45.820Z,22.90
2018-01-26T07:47:48.297Z,24.83
2018-01-26T07:48:50.756Z,22.02
2018-01-26T07:49:53.236Z,20.75
2018-01-26T07:50:55.712Z,18.33
2018-01-26T07:51:58.193Z,20.23
2018-01-26T07:53:00.659Z,18.20
2018-01-26T07:54:03.136Z,26.42
2018-01-26T07:55:05.603Z,29.35
2018-01-26T07:56:08.085Z,18.20
2018-01-26T07:57:10.559Z,17.58
2018-01-26T07:58:13.040Z,28.05
2018-01-26T07:59:15.532Z,26.02
2018-01-26T08:00:18.023Z,19.33
2018-01-26T08:01:20.580Z,19.30
2018-01-26T08:02:23.043Z,22.77
2018-01-26T08:03:25.578Z,24.92
2018-01-26T08:04:28.058Z,33.22
2018-01-26T08:05:30.584Z,18.40
2018-01-26T08:06:33.038Z,21.73
2018-01-26T08:07:35.516Z,25.17
2018-01-26T08:08:37.996Z,21.25
2018-01-26T08:09:40.475Z,27.00
2018-01-26T08:10:42.938Z,22.55
2018-01-26T08:11:45.513Z,19.25
2018-01-26T08:12:47.980Z,16.60
2018-01-26T08:13:50.466Z,21.05
2018-01-26T08:14:53.021Z,17.50
2018-01-26T08:15:55.498Z,22.73
2018-01-26T08:16:57.981Z,22.13
2018-01-26T08:18:00.462Z,16.17
2018-01-26T08:19:02.938Z,18.23
2018-01-26T08:20:05.400Z,20.08
2018-01-26T08:21:07.922Z,16.85
2018-01-26T08:22:10.385Z,17.23
2018-01-26T08:23:12.849Z,14.77
2018-01-26T08:24:15.328Z,20.85
2018-01-26T08:25:17.794Z,16.35
2018-01-26T08:26:20.257Z,21.17
2018-01-26T08:27:22.739Z,17.77
2018-01-26T08:28:25.199Z,23.23
2018-01-26T08:29:27.670Z,19.12
2018-01-26T08:30:30.152Z,21.30
2018-01-26T08:31:32.637Z,14.93
2018-01-26T08:32:35.115Z,17.90
2018-01-26T08:33:37.589Z,16.67
2018-01-26T08:34:40.077Z,25.17
2018-01-26T08:35:42.552Z,12.95
2018-01-26T08:36:45.029Z,16.73
2018-01-26T08:37:47.496Z,16.73
2018-01-26T08:38:49.972Z,22.42
2018-01-26T08:39:52.448Z,15.25
2018-01-26T08:40:54.932Z,20.42
2018-01-26T08:41:57.445Z,17.40
2018-01-26T08:42:59.914Z,19.65
2018-01-26T08:44:02.391Z,18.45
2018-01-26T08:45:04.878Z,32.35
2018-01-26T08:46:07.385Z,18.85
2018-01-26T08:47:09.865Z,21.17
2018-01-26T08:48:12.359Z,19.65
2018-01-26T08:49:14.837Z,15.55
2018-01-26T08:50:17.324Z,14.20
2018-01-26T08:51:19.791Z,19.15
2018-01-26T08:52:22.268Z,16.98
2018-01-26T08:53:24.748Z,19.10
2018-01-26T08:54:27.256Z,20.05
2018-01-26T08:55:29.733Z,18.42
2018-01-26T08:56:32.206Z,20.02
2018-01-26T08:57:34.687Z,17.65
2018-01-26T08:58:37.151Z,18.60
2018-01-26T08:59:39.633Z,16.67
2018-01-26T09:00:42.100Z,22.65
2018-01-26T09:01:44.570Z,22.10
2018-01-26T09:02:47.065Z,18.20
2018-01-26T09:03:49.545Z,16.42
2018-01-26T09:04:52.014Z,18.17
2018-01-26T09:05:54.497Z,17.87
2018-01-26T09:06:57.007Z,14.52
2018-01-26T09:07:59.484Z,13.15
2018-01-26T09:09:02.013Z,17.92
2018-01-26T09:10:04.489Z,13.40
2018-01-26T09:11:07.007Z,12.13
2018-01-26T09:12:09.484Z,12.68
2018-01-26T09:13:11.962Z,19.80
2018-01-26T09:14:14.432Z,16.12
2018-01-26T09:15:16.890Z,21.42
2018-01-26T09:16:19.347Z,18.50
2018-01-26T09:17:21.820Z,17.30
2018-01-26T09:18:24.274Z,15.93
2018-01-26T09:19:26.757Z,17.45
2018-01-26T09:20:29.236Z,12.80
2018-01-26T09:21:31.709Z,15.55
2018-01-26T09:22:34.193Z,14.20
2018-01-26T09:23:36.666Z,14.50
2018-01-26T09:24:39.130Z,19.95
2018-01-26T09:25:41.598Z,18.70
2018-01-26T09:26:44.092Z,22.75
2018-01-26T09:27:46.550Z,16.23
2018-01-26T09:28:49.011Z,13.23
2018-01-26T09:29:51.466Z,13.35
2018-01-26T09:30:53.930Z,18.55
2018-01-26T09:31:56.437Z,14.85
2018-01-26T09:32:58.909Z,15.40
2018-01-26T09:34:01.407Z,16.20
2018-01-26T09:35:03.883Z,17.37
2018-01-26T09:36:06.357Z,19.05
2018-01-26T09:37:08.839Z,16.52
2018-01-26T09:38:11.300Z,14.87
2018-01-26T09:39:13.781Z,23.58
2018-01-26T09:40:16.246Z,13.00
2018-01-26T09:41:18.714Z,15.52
2018-01-26T09:42:21.205Z,13.77
2018-01-26T09:43:23.681Z,11.82
2018-01-26T09:44:26.153Z,18.55
2018-01-26T09:45:28.651Z,12.73
2018-01-26T09:46:31.114Z,15.60
2018-01-26T09:47:33.613Z,17.73
2018-01-26T09:48:36.070Z,13.82
2018-01-26T09:49:38.555Z,19.33
2018-01-26T09:50:41.029Z,20.70
2018-01-26T09:51:43.513Z,22.52
2018-01-26T09:52:45.991Z,15.07
2018-01-26T09:53:48.454Z,15.60
2018-01-26T09:54:50.973Z,13.70
2018-01-26T09:55:53.448Z,15.02
2018-01-26T09:56:55.919Z,12.30
2018-01-26T09:57:58.419Z,13.60
2018-01-26T09:59:00.940Z,15.23
2018-01-26T10:00:03.427Z,13.00
2018-01-26T10:01:05.929Z,16.85
2018-01-26T10:02:08.417Z,16.83
2018-01-26T10:03:10.906Z,22.77
2018-01-26T10:04:13.387Z,21.33
2018-01-26T10:05:15.873Z,15.88
2018-01-26T10:06:18.419Z,18.85
2018-01-26T10:07:20.883Z,17.35
2018-01-26T10:08:23.361Z,20.12
2018-01-26T10:09:25.838Z,16.30
2018-01-26T10:10:28.321Z,25.70
2018-01-26T10:11:30.787Z,12.80
2018-01-26T10:12:33.250Z,15.93
2018-01-26T10:13:35.738Z,15.80
2018-01-26T10:14:38.208Z,12.20
2018-01-26T10:15:40.695Z,16.58
2018-01-26T10:16:43.177Z,16.65
2018-01-26T10:17:45.657Z,22.25
2018-01-26T10:18:48.219Z,22.52
2018-01-26T10:19:50.682Z,13.13
2018-01-26T10:20:53.153Z,23.90
2018-01-26T10:21:55.630Z,12.02
2018-01-26T10:22:58.100Z,11.95
2018-01-26T10:24:00.617Z,18.58
2018-01-26T10:25:03.074Z,15.13
2018-01-26T10:26:05.536Z,16.23
2018-01-26T10:27:07.994Z,13.10
2018-01-26T10:28:10.472Z,17.90
2018-01-26T10:29:13.057Z,12.00
2018-01-26T10:30:15.514Z,18.55
2018-01-26T10:31:17.993Z,17.67
2018-01-26T10:32:20.455Z,15.57
2018-01-26T10:33:22.926Z,16.37
2018-01-26T10:34:25.415Z,13.52
2018-01-26T10:35:28.052Z,14.57
2018-01-26T10:36:30.525Z,12.82
2018-01-26T10:37:32.987Z,16.55
2018-01-26T10:38:36.334Z,18.65
2018-01-26T10:39:38.815Z,15.90
2018-01-26T10:40:41.289Z,16.35
2018-01-26T10:41:44.246Z,19.87
2018-01-26T10:42:46.756Z,17.58
2018-01-26T10:43:49.223Z,20.83
2018-01-26T10:44:51.709Z,20.88
2018-01-26T10:45:54.189Z,15.50
2018-01-26T10:46:56.700Z,14.32
2018-01-26T10:47:59.162Z,14.55
2018-01-26T10:49:01.652Z,15.02
2018-01-26T10:50:04.166Z,13.23
2018-01-26T10:51:06.651Z,17.98
2018-01-26T10:52:09.138Z,17.70
2018-01-26T10:53:11.635Z,16.40
2018-01-26T10:54:14.150Z,14.85
2018-01-26T10:55:16.690Z,20.92
2018-01-26T10:56:19.210Z,18.70
2018-01-26T10:57:21.750Z,18.00
2018-01-26T10:58:24.259Z,22.20
2018-01-26T10:59:26.727Z,25.23
2018-01-26T11:00:29.218Z,18.45
2018-01-26T11:01:31.691Z,24.02
2018-01-26T11:02:34.158Z,26.52
2018-01-26T11:03:36.627Z,17.12
2018-01-26T11:04:39.101Z,22.30
2018-01-26T11:05:41.728Z,19.25
2018-01-26T11:06:44.205Z,24.33
2018-01-26T11:07:46.670Z,16.62
2018-01-26T11:08:49.146Z,20.83
2018-01-26T11:09:51.633Z,32.55
2018-01-26T11:10:54.129Z,42.40
2018-01-26T11:11:56.599Z,23.67
2018-01-26T11:12:59.073Z,52.38
2018-01-26T11:14:01.530Z,33.95
2018-01-26T11:15:04.009Z,30.58
2018-01-26T11:16:06.503Z,35.97
2018-01-26T11:17:08.981Z,70.60
2018-01-26T11:18:11.463Z,36.83
2018-01-26T11:19:14.071Z,24.98
2018-01-26T11:20:16.545Z,19.87
2018-01-26T11:21:19.036Z,26.37
2018-01-26T11:22:21.502Z,20.62
2018-01-26T11:23:24.894Z,22.37
2018-01-26T11:24:27.454Z,20.58
2018-01-26T11:25:29.926Z,13.23
2018-01-26T11:26:32.444Z,21.58
2018-01-26T11:27:34.888Z,17.35
2018-01-26T11:28:37.369Z,17.12
2018-01-26T11:29:39.827Z,24.15
2018-01-26T11:30:42.302Z,15.68
2018-01-26T11:31:44.785Z,17.08
2018-01-26T11:32:47.269Z,14.13
2018-01-26T11:33:49.748Z,17.12
2018-01-26T11:34:52.210Z,21.98
2018-01-26T11:35:54.674Z,14.35
2018-01-26T11:36:57.143Z,20.92
2018-01-26T11:37:59.641Z,17.35
2018-01-26T11:39:02.111Z,15.60
2018-01-26T11:40:04.574Z,21.75
2018-01-26T11:41:07.048Z,16.45
2018-01-26T11:42:09.510Z,18.92
2018-01-26T11:43:11.993Z,11.00
2018-01-26T11:44:14.482Z,12.60
2018-01-26T11:45:16.985Z,10.52
2018-01-26T11:46:19.469Z,12.40
2018-01-26T11:47:21.938Z,8.02
2018-01-26T11:48:24.492Z,18.70
2018-01-26T11:49:26.954Z,9.00
2018-01-26T11:50:29.428Z,9.02
2018-01-26T11:51:31.928Z,13.10
2018-01-26T11:52:34.398Z,25.08
2018-01-26T11:53:36.863Z,18.12
2018-01-26T11:54:39.337Z,14.02
2018-01-26T11:55:41.814Z,12.75
2018-01-26T11:56:44.278Z,14.27
2018-01-26T11:57:46.756Z,15.20
2018-01-26T11:58:49.214Z,16.62
2018-01-26T11:59:51.690Z,18.85
2018-01-26T12:00:54.155Z,7.10
2018-01-26T12:01:56.647Z,13.95
2018-01-26T12:02:59.121Z,14.07
2018-01-26T12:04:01.594Z,19.45
2018-01-26T12:05:04.072Z,13.93
2018-01-26T12:06:06.553Z,13.55
2018-01-26T12:07:09.054Z,15.02
2018-01-26T12:08:11.519Z,7.22
2018-01-26T12:09:13.990Z,9.63
2018-01-26T12:10:16.456Z,11.80
2018-01-26T12:11:18.946Z,15.35
2018-01-26T12:12:21.411Z,17.25
2018-01-26T12:13:23.891Z,11.90
2018-01-26T12:14:26.378Z,15.98
2018-01-26T12:15:28.905Z,10.77
2018-01-26T12:16:31.371Z,12.20
2018-01-26T12:17:33.839Z,15.13
2018-01-26T12:18:36.331Z,14.90
2018-01-26T12:19:38.808Z,14.82
2018-01-26T12:20:41.276Z,15.38
2018-01-26T12:21:43.738Z,12.37
2018-01-26T12:22:46.194Z,13.05
2018-01-26T12:23:48.697Z,7.95
2018-01-26T12:24:51.170Z,19.95
2018-01-26T12:25:53.645Z,11.27
2018-01-26T12:26:56.111Z,16.92
2018-01-26T12:27:58.582Z,13.48
2018-01-26T12:29:01.047Z,12.10
2018-01-26T12:30:03.545Z,11.75
2018-01-26T12:31:06.021Z,14.90
2018-01-26T12:32:08.623Z,12.25
2018-01-26T12:33:11.140Z,16.15
2018-01-26T12:34:13.601Z,9.98
2018-01-26T12:35:16.067Z,8.68
2018-01-26T12:36:18.539Z,20.23
2018-01-26T12:37:21.002Z,16.40
2018-01-26T12:38:23.482Z,12.55
2018-01-26T12:39:25.979Z,13.93
2018-01-26T12:40:28.457Z,11.18
2018-01-26T12:41:30.922Z,15.75
2018-01-26T12:42:33.404Z,10.85
2018-01-26T12:43:35.885Z,14.80
2018-01-26T12:44:38.373Z,10.27
2018-01-26T12:45:40.856Z,14.98
2018-01-26T12:46:43.338Z,17.83
2018-01-26T12:47:45.819Z,13.48
2018-01-26T12:48:48.282Z,16.12
2018-01-26T12:49:50.747Z,15.70
2018-01-26T12:50:53.210Z,10.02
2018-01-26T12:51:55.692Z,10.85
2018-01-26T12:52:58.154Z,12.35
2018-01-26T12:54:00.636Z,11.48
2018-01-26T12:55:03.117Z,8.30
2018-01-26T12:56:05.601Z,14.95
2018-01-26T12:57:08.073Z,20.85
2018-01-26T12:58:10.553Z,18.33
2018-01-26T12:59:13.019Z,11.38
2018-01-26T13:00:15.542Z,18.58
2018-01-26T13:01:18.062Z,11.18
2018-01-26T13:02:20.547Z,18.10
2018-01-26T13:03:23.011Z,12.43
2018-01-26T13:04:25.507Z,10.98
2018-01-26T13:05:27.988Z,15.77
2018-01-26T13:06:30.463Z,13.62
2018-01-26T13:07:32.927Z,17.70
2018-01-26T13:08:35.409Z,14.25
2018-01-26T13:09:37.875Z,19.40
2018-01-26T13:10:40.347Z,21.33
2018-01-26T13:11:42.829Z,15.25
2018-01-26T13:12:45.365Z,14.85
2018-01-26T13:13:47.877Z,27.27
2018-01-26T13:14:50.344Z,17.42
2018-01-26T13:15:52.857Z,12.30
2018-01-26T13:16:55.336Z,17.92
2018-01-26T13:17:57.852Z,22.80
2018-01-26T13:19:00.330Z,13.93
2018-01-26T13:20:02.822Z,16.73
2018-01-26T13:21:05.306Z,13.88
2018-01-26T13:22:07.785Z,10.70
2018-01-26T13:23:10.265Z,13.35
2018-01-26T13:24:12.731Z,14.02
2018-01-26T13:25:15.195Z,14.68
2018-01-26T13:26:17.685Z,16.80